Time;durP1;ratioP1;P1;durP2;ratioP2;P2;SDS_P1;SDS_P2;PMS_P1;PMS_P2;Temp;Humidity;BMP_temperature;BMP_pressure;BME280_temperature;BME280_humidity;BME280_pressure;Samples;Min_cycle;Max_cycle;Signal;HPM_P1;HPM_P2
2023/06/07 00:00:23;;;;;;;4.23;3.00;;;;;;;14.45;100.00;100240.97;5007734;28;20276;-61
2023/06/07 00:02:49;;;;;;;5.07;3.20;;;;;;;14.45;100.00;100247.88;5027279;28;20183;-61
2023/06/07 00:05:14;;;;;;;7.27;3.10;;;;;;;14.47;100.00;100249.44;5014474;28;20198;-60
2023/06/07 00:07:40;;;;;;;3.87;3.10;;;;;;;14.43;100.00;100247.19;5014708;28;20269;-59
2023/06/07 00:10:06;;;;;;;3.67;3.00;;;;;;;14.38;100.00;100244.09;5005290;28;20187;-59
2023/06/07 00:12:32;;;;;;;3.80;3.17;;;;;;;14.33;100.00;100246.97;5028990;28;20246;-59
2023/06/07 00:14:59;;;;;;;4.20;3.00;;;;;;;14.32;100.00;100247.91;5014649;28;20202;-61
2023/06/07 00:17:24;;;;;;;3.93;2.73;;;;;;;14.28;100.00;100244.69;5014800;28;20191;-60
2023/06/07 00:19:52;;;;;;;4.07;3.03;;;;;;;14.20;100.00;100240.06;5014771;28;20190;-60
2023/06/07 00:22:18;;;;;;;3.87;3.03;;;;;;;14.16;100.00;100236.00;5019485;28;20230;-60
2023/06/07 00:24:43;;;;;;;3.87;3.10;;;;;;;14.14;100.00;100237.88;5014909;28;20221;-60
2023/06/07 00:27:08;;;;;;;7.27;3.10;;;;;;;14.14;100.00;100237.88;5014170;28;20178;-61
2023/06/07 00:29:33;;;;;;;3.67;2.80;;;;;;;14.16;100.00;100228.25;5004885;28;20183;-61
2023/06/07 00:31:59;;;;;;;3.43;3.13;;;;;;;14.17;100.00;100234.25;5016506;28;20595;-61
2023/06/07 00:34:24;;;;;;;3.30;3.00;;;;;;;14.17;100.00;100235.06;5014754;28;20305;-60
2023/06/07 00:36:49;;;;;;;4.60;3.07;;;;;;;14.14;100.00;100231.88;5014324;28;20179;-61
2023/06/07 00:39:15;;;;;;;3.67;3.10;;;;;;;14.13;100.00;100238.00;5014715;28;20186;-61
2023/06/07 00:41:40;;;;;;;7.90;3.30;;;;;;;14.23;100.00;100230.41;5008608;28;20289;-61
2023/06/07 00:44:05;;;;;;;4.47;3.00;;;;;;;14.18;100.00;100228.97;5008926;28;20195;-61
2023/06/07 00:46:32;;;;;;;4.73;3.00;;;;;;;14.22;100.00;100228.78;5003909;28;20980;-61
2023/06/07 00:48:57;;;;;;;7.57;3.67;;;;;;;14.17;100.00;100229.09;5014232;28;20225;-61
2023/06/07 00:51:23;;;;;;;7.10;2.93;;;;;;;14.27;100.00;100229.28;5006331;28;20632;-61
2023/06/07 00:53:51;;;;;;;3.40;3.10;;;;;;;14.34;100.00;100221.00;5019209;28;20187;-60
2023/06/07 00:56:17;;;;;;;5.50;3.17;;;;;;;14.42;100.00;100214.47;5013462;28;20266;-61
2023/06/07 00:58:45;;;;;;;4.37;3.40;;;;;;;14.49;100.00;100221.69;5014141;28;20257;-60
2023/06/07 01:01:11;;;;;;;3.77;3.23;;;;;;;14.59;100.00;100228.84;5012675;28;20280;-61
2023/06/07 01:03:37;;;;;;;4.80;3.03;;;;;;;14.68;100.00;100230.81;5020403;28;20262;-61
2023/06/07 01:06:03;;;;;;;3.70;3.30;;;;;;;14.76;100.00;100232.84;5013648;28;20313;-60
2023/06/07 01:08:30;;;;;;;3.27;2.97;;;;;;;14.80;100.00;100242.09;5013820;28;20713;-60
2023/06/07 01:10:57;;;;;;;4.40;3.30;;;;;;;14.87;100.00;100229.53;5010997;28;20233;-61
2023/06/07 01:13:24;;;;;;;4.20;3.10;;;;;;;14.96;100.00;100228.88;5021901;28;20581;-61
2023/06/07 01:15:49;;;;;;;3.40;2.87;;;;;;;15.04;100.00;100223.97;5013309;28;20261;-60
2023/06/07 01:18:15;;;;;;;3.80;3.40;;;;;;;15.13;100.00;100227.66;5013265;28;20257;-61
2023/06/07 01:20:45;;;;;;;4.83;3.30;;;;;;;15.12;100.00;100223.41;5008656;28;20317;-61
2023/06/07 01:23:12;;;;;;;4.83;3.10;;;;;;;15.21;100.00;100220.19;5023264;28;20281;-61
2023/06/07 01:25:38;;;;;;;4.10;2.87;;;;;;;15.27;100.00;100231.84;5013302;28;20214;-61
2023/06/07 01:28:05;;;;;;;3.83;3.30;;;;;;;15.25;100.00;100225.97;5013625;28;20183;-60
2023/06/07 01:30:32;;;;;;;3.37;3.07;;;;;;;15.32;100.00;100222.81;4993661;28;20242;-59
2023/06/07 01:32:59;;;;;;;3.67;3.27;;;;;;;15.32;100.00;100219.41;5025119;28;20194;-59
2023/06/07 01:35:25;;;;;;;6.00;3.07;;;;;;;15.36;100.00;100215.66;5012886;28;20269;-59
2023/06/07 01:37:51;;;;;;;3.97;3.00;;;;;;;15.40;100.00;100211.88;5013637;28;20623;-59
2023/06/07 01:40:18;;;;;;;3.63;2.93;;;;;;;15.45;100.00;100211.53;5005054;28;20179;-59
2023/06/07 01:42:44;;;;;;;4.03;3.00;;;;;;;15.50;100.00;100214.63;5026648;28;20218;-59
2023/06/07 01:45:10;;;;;;;4.87;2.90;;;;;;;15.51;100.00;100208.50;5012304;28;20202;-60
2023/06/07 01:47:36;;;;;;;3.50;2.93;;;;;;;15.61;100.00;100209.47;5013537;28;20546;-59
2023/06/07 01:50:01;;;;;;;6.87;3.37;;;;;;;15.54;100.00;100202.25;5011817;28;20210;-59
2023/06/07 01:52:27;;;;;;;4.47;3.00;;;;;;;15.52;100.00;100201.53;5017888;28;20238;-59
2023/06/07 01:54:53;;;;;;;7.23;3.17;;;;;;;15.65;100.00;100202.28;5013060;28;20183;-59
2023/06/07 01:57:46;;;;;;;3.83;2.93;;;;;;;15.61;100.00;100196.50;5012596;28;20549;-59
2023/06/07 02:00:17;;;;;;;4.40;2.90;;;;;;;15.71;100.00;100193.25;4993716;28;20171;-59
2023/06/07 02:02:54;;;;;;;5.60;2.93;;;;;;;15.68;100.00;100186.53;5026215;28;20187;-61
2023/06/07 02:05:28;;;;;;;4.77;3.03;;;;;;;15.76;100.00;100184.16;5012420;28;20230;-59
2023/06/07 02:07:56;;;;;;;3.73;3.00;;;;;;;15.81;100.00;100191.59;5012815;28;20185;-59
2023/06/07 02:10:26;;;;;;;3.53;2.90;;;;;;;15.82;100.00;100191.50;5004946;28;20227;-59
2023/06/07 02:12:53;;;;;;;3.43;2.87;;;;;;;15.75;100.00;100181.69;5024734;28;20257;-59
2023/06/07 02:15:20;;;;;;;5.13;2.90;;;;;;;15.75;100.00;100176.50;5012271;28;20190;-60
2023/06/07 02:17:49;;;;;;;5.40;2.87;;;;;;;15.75;100.00;100184.28;5012053;28;20194;-59
2023/06/07 02:20:15;;;;;;;3.50;3.17;;;;;;;15.71;100.00;100180.28;5003612;28;20183;-60
2023/06/07 02:22:40;;;;;;;7.97;2.97;;;;;;;15.62;100.00;100190.38;5025960;28;20225;-60
2023/06/07 02:25:06;;;;;;;8.30;3.10;;;;;;;15.55;100.00;100188.38;5012082;28;20242;-59
2023/06/07 02:27:31;;;;;;;8.87;3.27;;;;;;;15.65;100.00;100179.81;5012476;28;20537;-59
2023/06/07 02:29:56;;;;;;;4.87;2.93;;;;;;;15.69;100.00;100179.56;4999649;28;20282;-60
2023/06/07 02:32:22;;;;;;;4.97;3.53;;;;;;;15.78;100.00;100184.88;5017557;28;20225;-59
2023/06/07 02:34:47;;;;;;;6.50;3.53;;;;;;;15.78;100.00;100182.28;5011035;28;20221;-59
2023/06/07 02:37:13;;;;;;;6.33;3.30;;;;;;;15.78;100.00;100177.09;5011429;28;20179;-60
2023/06/07 02:39:38;;;;;;;3.57;3.17;;;;;;;15.76;100.00;100184.16;5012688;28;20205;-60
2023/06/07 02:42:03;;;;;;;3.70;3.30;;;;;;;15.74;100.00;100186.06;5017663;28;20253;-59
2023/06/07 02:44:29;;;;;;;4.67;3.23;;;;;;;15.70;100.00;100183.81;5012045;28;20213;-60
2023/06/07 02:46:54;;;;;;;6.17;3.67;;;;;;;15.65;100.00;100189.31;5011703;28;20183;-60
2023/06/07 02:49:19;;;;;;;5.03;3.70;;;;;;;15.62;100.00;100192.16;5012427;28;20179;-60
2023/06/07 02:51:44;;;;;;;3.97;3.43;;;;;;;15.58;100.00;100194.16;5015101;28;20335;-60
2023/06/07 02:54:10;;;;;;;6.57;3.20;;;;;;;15.54;100.00;100186.72;5014340;28;20183;-60
2023/06/07 02:56:36;;;;;;;8.17;3.63;;;;;;;15.48;100.00;100191.41;5011422;28;20179;-60
2023/06/07 02:59:01;;;;;;;6.13;3.63;;;;;;;15.42;100.00;100188.47;5012345;28;20210;-60
2023/06/07 03:01:27;;;;;;;7.50;4.00;;;;;;;15.41;100.00;100190.22;4991093;28;20214;-59
2023/06/07 03:03:52;;;;;;;4.63;3.40;;;;;;;15.31;100.00;100192.66;5011628;28;20186;-60
2023/06/07 03:06:19;;;;;;;5.10;3.43;;;;;;;15.21;100.00;100189.06;5011066;28;20210;-60
2023/06/07 03:08:44;;;;;;;3.87;3.50;;;;;;;15.16;100.00;100186.81;5012035;28;20179;-60
2023/06/07 03:11:10;;;;;;;5.87;3.23;;;;;;;15.03;100.00;100191.22;5010421;28;20685;-60
2023/06/07 03:13:35;;;;;;;8.13;3.70;;;;;;;14.97;100.00;100191.66;5018693;28;20289;-60
2023/06/07 03:16:00;;;;;;;7.30;3.80;;;;;;;14.91;100.00;100190.34;5008870;28;20240;-59
2023/06/07 03:18:25;;;;;;;7.83;3.57;;;;;;;15.00;100.00;100189.69;5019871;28;20186;-60
2023/06/07 03:20:51;;;;;;;5.23;3.37;;;;;;;15.00;100.00;100196.63;5007967;28;20248;-60
2023/06/07 03:23:16;;;;;;;7.50;3.70;;;;;;;15.05;100.00;100178.19;5020499;28;20241;-59
2023/06/07 03:25:41;;;;;;;4.00;3.50;;;;;;;15.11;100.00;100188.09;5011330;28;20198;-59
2023/06/07 03:28:07;;;;;;;9.03;3.43;;;;;;;15.17;100.00;100185.88;5012201;28;20178;-59
2023/06/07 03:30:32;;;;;;;7.73;3.63;;;;;;;15.24;100.00;100185.44;4975347;28;20225;-60
2023/06/07 03:32:57;;;;;;;5.33;3.70;;;;;;;15.29;100.00;100180.75;5027527;28;20189;-60
2023/06/07 03:35:22;;;;;;;4.83;3.73;;;;;;;15.42;100.00;100183.28;5015078;28;20273;-60
2023/06/07 03:37:48;;;;;;;5.23;4.03;;;;;;;15.52;100.00;100186.84;5015780;28;20189;-59
2023/06/07 03:40:13;;;;;;;5.43;3.73;;;;;;;15.50;100.00;100186.09;5006502;28;20191;-60
2023/06/07 03:42:39;;;;;;;8.10;3.70;;;;;;;15.43;100.00;100184.91;5029623;28;20193;-59
2023/06/07 03:45:05;;;;;;;5.63;3.80;;;;;;;15.62;100.00;100185.19;5014955;28;20277;-60
2023/06/07 03:47:31;;;;;;;4.07;3.40;;;;;;;15.63;100.00;100184.25;5015622;28;20178;-60
2023/06/07 03:49:56;;;;;;;4.93;3.70;;;;;;;15.72;100.00;100187.13;5015414;28;20556;-60
2023/06/07 03:52:22;;;;;;;8.70;3.57;;;;;;;15.62;100.00;100192.97;5020386;28;20582;-60
2023/06/07 03:54:47;;;;;;;4.03;2.97;;;;;;;15.73;100.00;100189.59;5015308;28;20186;-60
2023/06/07 03:57:13;;;;;;;3.43;3.10;;;;;;;15.67;100.00;100195.22;5014761;28;20252;-60
2023/06/07 03:59:38;;;;;;;4.50;3.70;;;;;;;15.72;100.00;100200.91;5015190;28;20555;-60
2023/06/07 04:02:03;;;;;;;6.50;3.60;;;;;;;15.98;100.00;100195.56;5020367;28;20634;-60
2023/06/07 04:04:32;;;;;;;5.30;3.50;;;;;;;16.13;100.00;100199.56;5014647;28;20226;-60
2023/06/07 04:06:58;;;;;;;9.37;3.93;;;;;;;16.19;100.00;100192.28;5014544;28;20183;-60
2023/06/07 04:09:24;;;;;;;7.10;3.23;;;;;;;16.32;100.00;100186.97;5015146;28;20191;-60
2023/06/07 04:11:49;;;;;;;10.17;3.87;;;;;;;16.32;100.00;100187.78;5006847;28;20335;-60
2023/06/07 04:14:14;;;;;;;4.77;3.70;;;;;;;16.44;100.00;100197.19;5016290;28;20591;-60
2023/06/07 04:16:39;;;;;;;6.10;3.17;;;;;;;16.07;100.00;100192.25;5014607;28;20183;-60
2023/06/07 04:19:05;;;;;;;4.73;3.10;;;;;;;16.32;100.00;100199.94;5014729;28;20193;-60
2023/06/07 04:21:30;;;;;;;8.83;3.50;;;;;;;16.40;100.00;100190.59;5016038;28;20695;-60
2023/06/07 04:23:56;;;;;;;4.80;3.43;;;;;;;16.41;100.00;100199.22;5018618;28;20230;-60
2023/06/07 04:26:22;;;;;;;11.47;3.50;;;;;;;16.46;100.00;100195.31;5014154;28;20189;-60
2023/06/07 04:28:49;;;;;;;4.00;3.37;;;;;;;16.50;100.00;100195.09;5010810;28;20184;-60
2023/06/07 04:31:15;;;;;;;6.70;3.40;;;;;;;16.54;100.00;100199.91;5004935;28;20226;-61
2023/06/07 04:33:42;;;;;;;7.03;3.10;;;;;;;16.70;100.00;100196.94;5020513;28;20541;-60
2023/06/07 04:36:08;;;;;;;6.10;3.03;;;;;;;16.85;100.00;100194.09;5014007;28;20210;-60
2023/06/07 04:38:34;;;;;;;3.77;3.17;;;;;;;16.95;100.00;100210.63;5014413;28;20179;-60
2023/06/07 04:41:00;;;;;;;6.63;3.50;;;;;;;17.02;100.00;100201.38;5011397;28;20230;-61
2023/06/07 04:43:26;;;;;;;4.90;3.67;;;;;;;16.90;100.00;100205.75;5022118;28;20195;-60
2023/06/07 04:45:54;;;;;;;7.57;4.13;;;;;;;17.12;100.00;100203.22;5014176;28;20206;-60
2023/06/07 04:48:22;;;;;;;8.27;3.50;;;;;;;17.20;100.00;100196.47;5014282;28;20530;-60
2023/06/07 04:50:49;;;;;;;10.10;3.87;;;;;;;17.03;100.00;100208.25;5009910;28;20237;-60
2023/06/07 04:53:19;;;;;;;12.60;4.00;;;;;;;17.15;100.00;100205.59;5023450;28;20191;-61
2023/06/07 04:55:44;;;;;;;7.70;4.17;;;;;;;17.25;100.00;100206.50;5013873;28;20207;-60
2023/06/07 04:58:10;;;;;;;6.53;3.53;;;;;;;17.43;100.00;100210.19;5013940;28;20732;-60
2023/06/07 05:00:39;;;;;;;5.63;3.70;;;;;;;17.59;100.00;100203.75;5008209;28;20242;-60
2023/06/07 05:03:08;;;;;;;8.30;3.70;;;;;;;17.73;97.56;100206.00;5024440;28;20183;-60
2023/06/07 05:05:37;;;;;;;10.07;4.03;;;;;;;17.93;97.67;100211.34;5013511;28;20214;-61
2023/06/07 05:08:02;;;;;;;5.03;3.40;;;;;;;18.03;97.01;100201.81;5013883;28;20175;-61
2023/06/07 05:10:28;;;;;;;3.43;3.10;;;;;;;17.87;93.64;100204.03;5006788;28;20285;-60
2023/06/07 05:12:53;;;;;;;4.47;3.17;;;;;;;17.94;94.57;100204.38;5025691;28;20623;-60
2023/06/07 05:15:21;;;;;;;5.77;3.17;;;;;;;18.03;95.31;100201.81;5011938;28;20178;-62
2023/06/07 05:17:48;;;;;;;4.40;3.47;;;;;;;17.37;100.00;100199.47;5013535;28;20182;-60
2023/06/07 05:20:14;;;;;;;4.43;3.17;;;;;;;17.17;100.00;100208.91;5003663;28;20879;-61
2023/06/07 05:22:39;;;;;;;8.17;4.10;;;;;;;17.28;100.00;100211.47;5027331;28;20211;-60
2023/06/07 05:25:06;;;;;;;6.63;3.33;;;;;;;17.62;99.63;100210.47;5013073;28;20544;-62
2023/06/07 05:27:32;;;;;;;9.83;3.70;;;;;;;18.00;96.49;100198.69;5013514;28;20179;-59
2023/06/07 05:29:57;;;;;;;10.40;3.60;;;;;;;18.31;96.07;100204.69;5000356;28;20179;-59
2023/06/07 05:32:22;;;;;;;13.90;3.50;;;;;;;18.49;95.94;100211.88;5018182;28;20224;-60
2023/06/07 05:34:48;;;;;;;8.40;3.43;;;;;;;18.72;95.13;100217.72;5013478;28;20205;-62
2023/06/07 05:37:14;;;;;;;8.43;3.50;;;;;;;18.94;90.94;100218.44;5013032;28;20183;-60
2023/06/07 05:39:40;;;;;;;7.10;3.30;;;;;;;18.45;92.96;100211.31;5013390;28;20178;-62
2023/06/07 05:42:06;;;;;;;6.90;3.47;;;;;;;18.45;94.38;100219.13;5005558;28;20573;-60
2023/06/07 05:44:31;;;;;;;5.07;3.60;;;;;;;18.87;93.29;100218.97;5012936;28;20265;-61
2023/06/07 05:46:56;;;;;;;6.30;3.57;;;;;;;19.14;90.79;100220.13;5012418;28;20267;-60
2023/06/07 05:49:22;;;;;;;3.37;3.07;;;;;;;19.10;90.41;100217.91;5013022;28;20183;-61
2023/06/07 05:51:47;;;;;;;5.10;3.00;;;;;;;19.30;90.07;100214.38;5015749;28;20762;-60
2023/06/07 05:54:12;;;;;;;4.60;3.00;;;;;;;19.55;88.97;100211.31;5014748;28;20174;-61
2023/06/07 05:56:37;;;;;;;7.33;3.67;;;;;;;20.11;85.57;100207.91;5012492;28;20175;-60
2023/06/07 05:59:03;;;;;;;3.63;3.30;;;;;;;20.43;82.63;100204.06;5013055;28;20616;-61
2023/06/07 06:01:29;;;;;;;9.20;3.10;;;;;;;20.67;82.18;100209.72;5007397;28;20230;-60
2023/06/07 06:03:54;;;;;;;4.83;2.80;;;;;;;20.94;80.61;100204.47;5010808;28;20548;-61
2023/06/07 06:06:19;;;;;;;6.90;3.33;;;;;;;21.82;74.34;100199.44;5012194;28;20191;-61
2023/06/07 06:08:45;;;;;;;8.47;3.50;;;;;;;21.26;73.04;100204.91;5012967;28;20193;-60
2023/06/07 06:11:12;;;;;;;3.67;3.33;;;;;;;21.25;76.65;100209.31;5011332;28;20221;-60
2023/06/07 06:13:38;;;;;;;6.73;3.17;;;;;;;22.01;70.05;100207.09;5018988;28;20751;-60
2023/06/07 06:16:04;;;;;;;8.77;2.93;;;;;;;22.78;62.69;100206.25;5011786;28;20258;-59
2023/06/07 06:18:29;;;;;;;3.27;2.80;;;;;;;23.68;57.36;100209.91;5012596;28;20178;-60
2023/06/07 06:20:55;;;;;;;4.30;3.07;;;;;;;24.01;56.31;100215.94;5009383;28;20673;-60
2023/06/07 06:23:20;;;;;;;3.83;3.23;;;;;;;24.55;53.44;100214.41;5021050;28;20198;-60
2023/06/07 06:25:46;;;;;;;4.73;3.00;;;;;;;24.43;52.30;100213.94;5011894;28;20199;-60
2023/06/07 06:28:12;;;;;;;3.50;3.07;;;;;;;24.45;51.96;100216.44;5012493;28;20186;-62
2023/06/07 06:30:37;;;;;;;3.53;3.10;;;;;;;25.03;47.94;100221.34;4993715;28;20218;-60
2023/06/07 06:33:03;;;;;;;5.63;3.20;;;;;;;26.15;44.29;100219.84;5023298;28;20179;-60
2023/06/07 06:35:29;;;;;;;5.10;3.25;;;;;;;27.22;39.65;100215.75;5012067;28;20274;-60
2023/06/07 06:37:54;;;;;;;4.80;2.63;;;;;;;26.94;38.68;100221.81;5011372;28;20321;-59
2023/06/07 06:40:20;;;;;;;3.78;2.78;;;;;;;27.81;35.81;100227.78;5004084;28;20186;-59
2023/06/07 06:42:46;;;;;;;4.20;3.13;;;;;;;27.25;37.14;100228.56;5025269;28;20179;-60
2023/06/07 06:45:11;;;;;;;6.50;3.17;;;;;;;26.70;38.14;100233.50;5010948;28;20205;-59
2023/06/07 06:47:41;;;;;;;7.05;3.03;;;;;;;26.45;38.88;100225.91;5012361;28;20205;-59
2023/06/07 06:50:10;;;;;;;6.45;3.38;;;;;;;25.77;40.29;100233.91;5002489;28;20646;-60
2023/06/07 06:52:37;;;;;;;5.60;3.45;;;;;;;24.73;43.71;100226.50;5026145;28;20178;-60
2023/06/07 06:55:02;;;;;;;4.95;3.67;;;;;;;24.55;45.05;100231.97;5011512;28;20206;-60
2023/06/07 06:57:28;;;;;;;7.68;3.50;;;;;;;23.49;50.01;100238.16;5012152;28;20528;-59
2023/06/07 06:59:53;;;;;;;10.52;3.75;;;;;;;23.06;52.54;100240.06;5011753;28;20278;-59
2023/06/07 07:02:18;;;;;;;10.43;3.75;;;;;;;22.59;54.45;100237.97;4990595;28;20233;-59
2023/06/07 07:04:43;;;;;;;5.97;3.92;;;;;;;21.95;60.61;100231.28;5011923;28;20202;-59
2023/06/07 07:07:09;;;;;;;4.33;3.60;;;;;;;21.78;60.81;100240.84;5011749;28;20182;-59
2023/06/07 07:09:34;;;;;;;8.33;4.13;;;;;;;21.73;61.60;100241.31;5011959;28;20209;-59
2023/06/07 07:11:59;;;;;;;8.63;3.33;;;;;;;21.45;63.09;100241.38;5016698;28;20650;-60
2023/06/07 07:14:24;;;;;;;6.90;3.63;;;;;;;21.30;65.77;100235.03;5011917;28;20212;-59
2023/06/07 07:16:50;;;;;;;7.67;3.83;;;;;;;21.87;64.24;100239.91;5015069;28;20241;-60
2023/06/07 07:19:15;;;;;;;7.00;4.20;;;;;;;22.47;59.52;100234.84;5012854;28;20186;-60
2023/06/07 07:21:43;;;;;;;6.33;3.70;;;;;;;22.48;58.04;100232.06;5014414;28;20677;-60
2023/06/07 07:24:08;;;;;;;6.47;3.70;;;;;;;22.59;58.86;100236.19;5013998;28;20195;-60
2023/06/07 07:26:33;;;;;;;3.97;3.40;;;;;;;22.24;59.84;100244.03;5011026;28;20595;-60
2023/06/07 07:28:59;;;;;;;8.87;3.80;;;;;;;22.91;59.44;100244.28;5006238;28;20207;-59
2023/06/07 07:31:24;;;;;;;5.60;4.13;;;;;;;23.60;53.76;100250.09;4973426;28;20227;-59
2023/06/07 07:33:50;;;;;;;9.30;3.67;;;;;;;25.43;45.27;100248.41;5007120;28;20182;-60
2023/06/07 07:36:16;;;;;;;6.18;3.45;;;;;;;27.55;38.97;100249.56;5011139;28;20187;-60
2023/06/07 07:38:41;;;;;;;7.82;3.92;;;;;;;27.08;38.58;100248.31;5011706;28;20182;-60
2023/06/07 07:41:06;;;;;;;6.85;4.10;;;;;;;28.11;37.98;100247.91;5009976;28;20272;-60
2023/06/07 07:43:32;;;;;;;7.82;3.58;;;;;;;30.56;34.15;100253.72;5018534;28;20669;-61
2023/06/07 07:45:57;;;;;;;5.75;3.42;;;;;;;32.92;30.42;100253.91;5009834;28;20216;-60
2023/06/07 07:48:22;;;;;;;10.82;3.22;;;;;;;33.13;28.98;100259.72;5011498;28;20278;-61
2023/06/07 07:50:48;;;;;;;8.63;3.58;;;;;;;32.94;28.23;100273.13;5007513;28;20240;-60
2023/06/07 07:53:13;;;;;;;6.05;3.47;;;;;;;32.71;28.17;100265.06;5021133;28;20175;-61
2023/06/07 07:55:39;;;;;;;4.57;3.40;;;;;;;33.08;27.49;100257.78;5011028;28;20193;-61
2023/06/07 07:58:04;;;;;;;9.50;4.05;;;;;;;32.72;28.37;100269.34;5011463;28;20171;-61
2023/06/07 08:00:29;;;;;;;7.25;3.70;;;;;;;32.35;28.55;100267.59;5004157;28;20226;-62
2023/06/07 08:02:54;;;;;;;8.13;3.40;;;;;;;30.93;30.46;100258.41;5023254;28;20195;-60
2023/06/07 08:05:20;;;;;;;4.43;3.38;;;;;;;29.89;32.81;100261.88;5010798;28;20207;-62
2023/06/07 08:07:45;;;;;;;5.20;3.63;;;;;;;30.63;31.09;100259.00;5010342;28;20244;-60
2023/06/07 08:10:11;;;;;;;7.32;3.60;;;;;;;31.25;30.14;100258.41;5002260;28;20179;-62
2023/06/07 08:12:36;;;;;;;3.85;3.35;;;;;;;33.74;28.12;100257.69;5025076;28;20587;-60
2023/06/07 08:15:02;;;;;;;6.18;3.40;;;;;;;34.30;27.04;100256.41;5012274;28;20872;-60
2023/06/07 08:17:28;;;;;;;4.40;3.15;;;;;;;35.03;27.32;100257.50;5002447;28;20194;-61
2023/06/07 08:19:53;;;;;;;6.70;3.65;;;;;;;34.64;26.79;100256.53;5015108;28;20205;-62
2023/06/07 08:22:18;;;;;;;5.63;3.63;;;;;;;35.13;26.52;100256.03;5019836;28;20233;-62
2023/06/07 08:24:43;;;;;;;6.32;4.10;;;;;;;33.58;26.72;100253.06;5014869;28;20218;-61
2023/06/07 08:27:09;;;;;;;5.85;3.53;;;;;;;33.57;26.99;100252.25;5014197;28;20556;-61
2023/06/07 08:29:34;;;;;;;6.50;3.80;;;;;;;33.09;27.60;100242.59;5004745;28;20218;-61
2023/06/07 08:32:00;;;;;;;8.05;3.75;;;;;;;33.72;26.75;100249.09;5016351;28;20222;-61
2023/06/07 08:34:28;;;;;;;6.80;3.60;;;;;;;33.26;27.97;100250.72;5014809;28;20210;-60
2023/06/07 08:36:54;;;;;;;5.45;4.03;;;;;;;32.08;28.91;100254.56;5013876;28;20539;-60
2023/06/07 08:39:20;;;;;;;4.93;4.43;;;;;;;31.74;30.50;100247.97;5014709;28;20179;-61
2023/06/07 08:41:45;;;;;;;7.65;3.83;;;;;;;32.88;28.99;100249.28;5017571;28;20303;-61
2023/06/07 08:44:11;;;;;;;9.57;4.70;;;;;;;32.23;28.66;100254.22;5016517;28;20186;-61
2023/06/07 08:46:37;;;;;;;5.07;3.88;;;;;;;30.81;31.13;100250.31;5013649;28;20187;-61
2023/06/07 08:49:02;;;;;;;5.38;3.85;;;;;;;31.73;30.27;100243.69;5014580;28;20191;-60
2023/06/07 08:51:28;;;;;;;6.05;4.20;;;;;;;31.68;30.62;100242.50;5014894;28;20305;-61
2023/06/07 08:54:02;;;;;;;9.07;3.70;;;;;;;31.77;30.73;100245.69;5018550;28;20191;-60
2023/06/07 08:56:31;;;;;;;6.18;3.90;;;;;;;31.05;31.75;100240.75;5013170;28;20644;-61
2023/06/07 08:58:57;;;;;;;8.85;4.43;;;;;;;32.14;29.76;100248.34;5014297;28;20528;-61
2023/06/07 09:01:23;;;;;;;6.20;4.32;;;;;;;30.95;31.73;100241.25;5013801;28;20280;-60
2023/06/07 09:03:52;;;;;;;5.40;3.97;;;;;;;30.91;31.75;100248.00;5018591;28;20193;-60
2023/06/07 09:06:18;;;;;;;6.90;3.90;;;;;;;30.50;31.90;100246.59;5012830;28;20214;-60
2023/06/07 09:08:43;;;;;;;9.90;4.32;;;;;;;31.63;31.70;100244.16;5013683;28;20182;-60
2023/06/07 09:11:08;;;;;;;4.57;4.00;;;;;;;32.13;29.57;100246.72;5011740;28;20800;-61
2023/06/07 09:13:34;;;;;;;7.68;4.43;;;;;;;31.90;30.11;100246.59;5012063;28;20234;-60
2023/06/07 09:16:00;;;;;;;9.63;4.82;;;;;;;30.65;31.34;100249.81;4999808;28;20553;-60
2023/06/07 09:18:43;;;;;;;6.57;4.53;;;;;;;29.66;33.69;100231.31;5013268;28;20229;-59
2023/06/07 09:21:26;;;;;;;8.82;4.15;;;;;;;29.15;33.98;100236.22;5011937;28;20241;-59
2023/06/07 09:23:52;;;;;;;4.65;4.18;;;;;;;28.10;36.50;100238.34;5018005;28;20210;-60
2023/06/07 09:26:18;;;;;;;11.23;6.72;;;;;;;27.74;37.86;100239.34;5011644;28;20210;-59
2023/06/07 09:28:47;;;;;;;5.63;4.20;;;;;;;26.93;38.25;100240.47;5009992;28;20214;-59
2023/06/07 09:31:25;;;;;;;8.50;4.30;;;;;;;27.45;37.61;100233.22;5002915;28;20241;-59
2023/06/07 09:33:51;;;;;;;6.70;4.68;;;;;;;28.03;36.39;100236.47;5017537;28;20193;-60
2023/06/07 09:36:16;;;;;;;7.15;4.18;;;;;;;29.78;34.24;100232.31;5012317;28;20191;-61
2023/06/07 09:38:41;;;;;;;8.13;4.20;;;;;;;29.34;33.85;100239.09;5012786;28;20182;-61
2023/06/07 09:41:09;;;;;;;6.20;4.18;;;;;;;28.20;36.10;100232.69;5011221;28;20229;-60
2023/06/07 09:43:50;;;;;;;5.10;4.20;;;;;;;28.00;36.72;100228.91;5019615;28;20697;-60
2023/06/07 09:46:19;;;;;;;5.18;4.68;;;;;;;29.32;34.70;100225.22;5012016;28;20246;-60
2023/06/07 09:48:53;;;;;;;6.88;4.03;;;;;;;31.17;31.91;100227.59;5012771;28;20313;-61
2023/06/07 09:51:20;;;;;;;5.97;4.45;;;;;;;30.66;32.22;100232.81;5012240;28;20917;-60
2023/06/07 09:53:50;;;;;;;7.22;4.32;;;;;;;30.69;34.11;100239.56;5018299;28;20723;-60
2023/06/07 09:56:21;;;;;;;5.05;4.55;;;;;;;31.49;32.06;100233.66;5012031;28;20183;-61
2023/06/07 09:59:05;;;;;;;5.25;4.57;;;;;;;31.42;30.85;100230.28;5011539;28;20540;-61
2023/06/07 10:01:33;;;;;;;6.72;4.18;;;;;;;30.49;33.08;100234.34;5013672;28;20225;-60
2023/06/07 10:04:01;;;;;;;7.13;5.07;;;;;;;28.71;34.90;100231.47;5016191;28;20552;-61
2023/06/07 10:06:30;;;;;;;7.28;4.63;;;;;;;27.52;37.55;100228.81;4999031;28;20206;-61
2023/06/07 10:08:59;;;;;;;8.38;5.00;;;;;;;27.49;38.30;100226.56;5012289;28;20251;-61
2023/06/07 10:11:26;;;;;;;5.65;4.47;;;;;;;28.46;37.09;100216.91;5013118;28;20225;-61
2023/06/07 10:13:52;;;;;;;5.78;4.13;;;;;;;27.48;38.26;100225.72;5003495;28;20590;-60
2023/06/07 10:16:20;;;;;;;5.15;4.65;;;;;;;26.79;39.89;100219.22;5011842;28;20190;-60
2023/06/07 10:18:48;;;;;;;8.35;4.88;;;;;;;27.69;41.00;100213.47;5012072;28;20241;-60
2023/06/07 10:21:18;;;;;;;12.40;4.35;;;;;;;28.66;39.41;100203.72;5011234;28;20230;-60
2023/06/07 10:23:58;;;;;;;6.55;4.75;;;;;;;27.71;38.36;100214.13;5017736;28;20557;-60
2023/06/07 10:26:49;;;;;;;6.43;4.75;;;;;;;28.95;36.13;100212.38;5011495;28;20216;-62
2023/06/07 10:29:25;;;;;;;6.38;4.40;;;;;;;29.56;35.37;100201.75;4995744;28;20192;-61
2023/06/07 10:32:00;;;;;;;7.85;4.82;;;;;;;29.23;36.75;100203.41;5011508;28;20225;-61
2023/06/07 10:34:28;;;;;;;5.88;4.57;;;;;;;30.26;33.87;100201.19;5011993;28;20625;-61
2023/06/07 10:36:55;;;;;;;8.80;4.00;;;;;;;29.08;36.50;100195.66;5011937;28;20218;-61
2023/06/07 10:39:20;;;;;;;6.10;4.93;;;;;;;26.87;39.44;100195.34;5011959;28;20500;-60
2023/06/07 10:41:46;;;;;;;5.63;4.55;;;;;;;26.05;42.08;100199.84;5015205;28;20295;-60
2023/06/07 10:44:11;;;;;;;7.72;5.10;;;;;;;25.29;45.45;100203.41;5013815;28;20201;-61
2023/06/07 10:46:37;;;;;;;6.28;4.28;;;;;;;25.23;48.08;100198.00;5011366;28;20577;-60
2023/06/07 10:49:03;;;;;;;5.72;4.13;;;;;;;25.74;45.81;100190.31;5011602;28;20210;-60
2023/06/07 10:51:51;;;;;;;5.53;4.22;;;;;;;25.34;47.40;100197.59;5012950;28;20291;-60
2023/06/07 10:54:34;;;;;;;6.13;4.95;;;;;;;25.87;46.58;100187.03;5002670;28;20204;-60
2023/06/07 10:57:00;;;;;;;5.05;4.55;;;;;;;26.17;45.87;100180.97;5011397;28;20843;-61
2023/06/07 10:59:26;;;;;;;6.93;4.90;;;;;;;26.02;44.22;100183.59;5012042;28;20476;-60
2023/06/07 11:01:54;;;;;;;5.80;4.50;;;;;;;25.51;46.23;100181.66;4990724;28;20229;-60
2023/06/07 11:04:36;;;;;;;8.43;4.72;;;;;;;25.61;48.16;100179.59;5011591;28;20187;-60
2023/06/07 11:07:28;;;;;;;7.78;4.30;;;;;;;26.28;47.31;100185.75;4999318;28;20202;-60
2023/06/07 11:10:00;;;;;;;7.60;4.80;;;;;;;26.14;45.77;100183.97;5011725;28;20199;-60
2023/06/07 11:12:34;;;;;;;7.65;4.43;;;;;;;26.28;45.96;100185.75;5016875;28;20238;-61
2023/06/07 11:15:20;;;;;;;8.13;4.30;;;;;;;26.34;48.12;100185.00;5011347;28;20190;-60
2023/06/07 11:17:55;;;;;;;6.53;4.35;;;;;;;26.61;46.20;100184.47;5000293;28;20662;-60
2023/06/07 11:20:36;;;;;;;6.22;4.53;;;;;;;26.82;47.14;100178.47;5003765;28;20180;-60